Station: Argyle

  Atmospheric Gas Attenuation - ITU Rec 676-11   --------------- db/100km ---------------
Date Time Temp RH % AH g/m3 Dew Point Wind Direction Speed kph Gust kph Barometer mB Rainfall Since 9am 24GHz 47GHz 76GHz 122GHz 134GHz 241GHz
04 05:20 20.2 31 5.42 2.5 11 11 1012.5 0 12.6 19.6 25.7 66.9 54.3 184.7
04 05:10 19.9 32 5.5 2.7 11 13 1012.5 0 12.8 19.8 26.1 67.8 55.4 188.4
04 04:50 19.8 33 5.64 3.1 13 15 1012.5 0 13.1 20.0 26.6 69.2 57.0 194.0
04 04:40 19.9 33 5.67 3.2 11 11 1012.5 0 13.1 20.0 26.6 69.3 57.2 194.9
04 04:30 19.3 33 5.47 2.6 9 11 1011.6 0 12.8 19.9 26.1 68.0 55.4 188.5
04 04:20 19.6 32 5.4 2.5 11 11 1012.4 0 12.6 19.7 25.8 67.2 54.5 185.3
04 04:10 19.5 32 5.37 2.4 11 11 1012.4 0 12.5 19.7 25.8 67.0 54.3 184.4
04 04:00 19.9 32 5.5 2.7 9 13 1011.6 0 12.8 19.8 26.0 67.8 55.4 188.3
04 03:50 19.1 33 5.41 2.5 9 9 1012.4 0 12.6 19.8 26.0 67.7 55.0 186.8
04 03:40 19.2 33 5.44 2.6 11 13 1012.4 0 12.7 19.9 26.1 67.9 55.2 187.7
04 03:30 19.4 32 5.34 2.3 11 11 1011.6 0 12.5 19.7 25.7 66.8 54.0 183.3
04 03:20 19.6 31 5.23 2 11 11 1012.5 0 12.2 19.5 25.3 65.7 52.7 178.9
04 03:10 19.7 30 5.09 1.7 11 11 1012.5 0 11.9 19.3 24.8 64.4 51.1 173.4
04 03:00 19.8 31 5.29 2.2 11 11 1011.8 0 12.4 19.5 25.4 66.0 53.2 180.6
04 02:50 19.8 31 5.29 2.2 11 11 1012.8 0 12.4 19.5 25.4 66.1 53.2 180.7
04 02:40 19.7 31 5.26 2.1 11 11 1012.8 0 12.3 19.5 25.4 65.9 53.0 179.8
04 02:30 19.8 32 5.47 2.6 9 11 1012.1 0 12.7 19.8 26.0 67.6 55.1 187.4
04 02:20 19.3 32 5.31 2.2 9 9 1012.9 0 12.4 19.7 25.6 66.7 53.8 182.6
04 02:10 19.2 31 5.11 1.7 13 13 1012.9 0 12.0 19.4 25.0 65.0 51.7 175.2
04 02:00 19.1 31 5.08 1.6 11 13 1012.1 0 11.9 19.4 24.9 64.8 51.4 174.2
04 01:50 19.5 30 5.03 1.5 11 11 1012.9 0 11.8 19.3 24.7 64.1 50.6 171.6
04 01:40 20.2 29 5.07 1.6 11 13 1012.9 0 11.9 19.2 24.6 63.9 50.6 171.7
04 01:30 20.3 29 5.1 1.7 11 13 1012.2 0 11.9 19.2 24.6 64.0 50.9 172.5
04 01:20 20.8 27 4.89 1.1 11 11 1013.1 0 11.5 18.8 23.9 61.9 48.4 163.8
04 01:10 21.2 27 5 1.5 9 11 1013.1 0 11.7 18.9 24.1 62.6 49.3 167.1
04 01:00 20.8 26 4.71 0.6 9 9 1012.4 0 11.1 18.6 23.3 60.4 46.5 157.1
04 00:50 20.1 27 4.69 0.5 9 9 1013.1 0 11.1 18.7 23.4 60.8 46.7 157.8
04 00:40 21.1 26 4.79 0.9 6 7 1013 0 11.3 18.6 23.5 60.9 47.2 159.6
04 00:30 21.3 26 4.85 1 9 11 1012.3 0 11.4 18.7 23.6 61.2 47.6 161.3
04 00:20 21.2 26 4.82 1 9 9 1013 0 11.3 18.7 23.5 61.1 47.4 160.5
04 00:10 20.8 26 4.71 0.6 11 13 1013 0 11.1 18.6 23.3 60.4 46.5 157.2
04 00:00 20.5 27 4.8 0.9 9 11 1012.2 0 11.3 18.8 23.6 61.3 47.6 161.0
03 23:50 21.2 26 4.82 1 7 9 1013 0 11.3 18.7 23.5 61.1 47.4 160.5
03 23:40 22.1 25 4.88 1.2 7 7 1013 0 11.4 18.6 23.5 60.9 47.5 160.9
03 23:30 22.4 25 4.96 1.4 6 7 1012.2 0 11.6 18.6 23.6 61.3 48.1 163.1
03 23:20 22.5 24 4.79 0.9 7 7 1013 0 11.2 18.4 23.1 59.9 46.4 156.9
03 23:10 22.6 24 4.82 1 7 9 1013 0 11.3 18.4 23.1 60.0 46.6 157.8
03 23:00 22.7 24 4.85 1.1 9 9 1012.2 0 11.4 18.4 23.2 60.2 46.8 158.6
03 22:50 23.2 22 4.57 0.3 9 9 1013 0 10.8 18.0 22.2 57.6 43.8 147.9
03 22:40 23.3 22 4.6 0.4 7 9 1013 0 10.8 18.0 22.3 57.8 44.0 148.8
03 22:30 23.4 22 4.63 0.5 9 9 1012.2 0 10.9 18.0 22.3 57.9 44.2 149.5
03 22:20 23.4 22 4.63 0.5 9 9 1013 0 10.9 18.0 22.3 57.9 44.3 149.6
03 22:10 22.9 23 4.7 0.7 9 9 1012.9 0 11.0 18.2 22.7 58.8 45.2 153.0
03 22:00 23.1 22 4.55 0.2 9 9 1012.1 0 10.7 17.9 22.2 57.4 43.6 147.2
03 21:50 23.6 22 4.68 0.7 7 9 1012.8 0 11.0 18.0 22.4 58.2 44.7 151.0
03 21:40 24.7 20 4.53 0.3 7 9 1012.8 0 10.6 17.6 21.7 56.2 42.6 143.9
03 21:30 25.4 21 4.94 1.5 7 17 1011.9 0 11.5 18.0 22.7 59.0 46.2 156.7
03 21:20 24.5 21 4.7 0.8 7 7 1012.6 0 11.0 17.9 22.3 57.7 44.4 150.1
03 21:10 24.1 22 4.81 1.1 7 9 1012.5 0 11.2 18.1 22.7 58.9 45.7 154.6
03 21:00 23.9 21 4.54 0.3 9 11 1011.7 0 10.7 17.8 21.9 56.8 43.1 145.4
03 20:50 24.3 21 4.65 0.6 9 9 1012.2 0 10.9 17.8 22.2 57.4 44.0 148.6
03 20:40 24.3 21 4.65 0.6 7 7 1012.1 0 10.9 17.8 22.1 57.4 44.0 148.6
03 20:30 24.6 20 4.5 0.2 9 11 1011.3 0 10.6 17.6 21.6 56.0 42.3 142.8
03 20:20 25.1 19 4.4 -0.1 9 9 1011.9 0 10.4 17.4 21.2 54.9 41.1 138.6
03 20:10 26.4 18 4.48 0.2 11 11 1011.8 0 10.5 17.2 21.1 54.7 41.2 139.2
03 20:00 26.7 18 4.56 0.4 11 13 1011 0 10.6 17.3 21.2 55.0 41.8 141.3
03 19:50 26.7 18 4.56 0.4 11 13 1011.6 0 10.6 17.3 21.3 55.1 41.8 141.4
03 19:40 26.9 18 4.61 0.6 11 11 1011.5 0 10.7 17.3 21.4 55.3 42.2 142.7
03 19:30 27.3 17 4.45 0.1 11 13 1010.6 0 10.4 17.0 20.8 53.8 40.5 136.6
03 19:20 27.4 17 4.47 0.2 11 13 1011.3 0 10.4 17.0 20.8 53.9 40.6 137.2
03 19:10 27.8 16 4.3 -0.3 11 13 1011.3 0 10.1 16.8 20.2 52.4 38.9 131.0
03 19:00 28 16 4.35 -0.1 9 11 1010.4 0 10.2 16.8 20.3 52.6 39.2 132.2
03 18:50 28.4 15 4.17 -0.7 9 11 1011.1 0 9.8 16.5 19.7 51.0 37.4 125.8
03 18:40 29.1 14 4.04 -1.1 7 9 1011 0 9.5 16.2 19.2 49.7 35.9 120.6
03 18:30 29.9 14 4.22 -0.5 11 15 1010.2 0 9.9 16.3 19.5 50.5 37.1 125.2
03 18:20 30 14 4.25 -0.4 11 13 1010.9 0 9.9 16.3 19.6 50.7 37.4 126.0
03 18:10 30.4 13 4.03 -1.1 9 11 1010.9 0 9.5 16.0 18.9 48.8 35.3 118.5
03 18:00 30.8 13 4.12 -0.8 9 11 1010 0 9.6 16.0 19.0 49.2 35.9 120.7
03 17:50 30.9 13 4.14 -0.7 9 11 1010.8 0 9.7 16.1 19.1 49.3 36.0 121.3
03 17:40 31.2 13 4.21 -0.5 13 17 1010.8 0 9.8 16.1 19.2 49.7 36.5 123.1
03 17:30 31 13 4.16 -0.6 7 15 1009.9 0 9.7 16.0 19.1 49.4 36.1 121.7
03 17:20 30.9 13 4.14 -0.7 7 9 1010.7 0 9.7 16.1 19.1 49.3 36.0 121.3
03 17:10 31.3 13 4.23 -0.4 7 7 1010.7 0 9.8 16.1 19.2 49.8 36.6 123.5
03 17:00 30.6 13 4.07 -0.9 6 9 1009.9 0 9.5 16.0 18.9 49.0 35.5 119.4
03 16:50 31.1 13 4.18 -0.5 6 9 1010.8 0 9.7 16.1 19.2 49.5 36.3 122.3
03 16:40 30.9 13 4.14 -0.7 9 11 1010.8 0 9.7 16.1 19.1 49.3 36.0 121.3
03 16:30 30.8 13 4.12 -0.8 11 17 1009.9 0 9.6 16.0 19.0 49.2 35.9 120.7
03 16:20 30.9 13 4.14 -0.7 7 7 1010.7 0 9.7 16.1 19.1 49.3 36.0 121.3
03 16:10 30.8 13 4.12 -0.8 7 9 1010.8 0 9.6 16.1 19.1 49.3 35.9 120.8
03 16:00 31.2 13 4.21 -0.5 11 17 1010 0 9.8 16.1 19.2 49.6 36.5 123.0
03 15:50 31.4 13 4.25 -0.3 15 17 1010.9 0 9.9 16.1 19.3 49.9 36.8 124.0
03 15:40 31 13 4.16 -0.6 11 15 1011.1 0 9.7 16.1 19.1 49.4 36.2 121.8
03 15:30 31 13 4.16 -0.6 15 24 1010.4 0 9.7 16.1 19.1 49.4 36.1 121.7
03 15:20 32 13 4.39 0.2 13 17 1011.2 0 10.1 16.2 19.5 50.5 37.8 127.6
03 15:10 32 13 4.39 0.2 20 28 1011.1 0 10.1 16.2 19.5 50.5 37.8 127.6
03 15:00 31.7 13 4.32 -0.1 9 19 1010.7 0 10.0 16.1 19.4 50.2 37.3 125.8
03 14:50 30.8 13 4.12 -0.8 9 11 1011.7 0 9.6 16.1 19.1 49.3 35.9 120.9
03 14:40 31.2 13 4.21 -0.5 7 9 1011.9 0 9.8 16.1 19.2 49.7 36.6 123.2
03 14:30 30.7 14 4.41 0.2 7 13 1011.4 0 10.2 16.4 19.9 51.5 38.6 130.2
03 14:20 30.5 14 4.36 0 7 9 1012.2 0 10.1 16.4 19.8 51.3 38.2 129.0
03 14:10 30.2 14 4.29 -0.2 6 7 1012.5 0 10.0 16.4 19.7 50.9 37.7 127.2
03 14:00 30.1 13 3.96 -1.3 15 20 1011.9 0 9.3 16.0 18.8 48.6 34.8 116.8
03 13:50 30.7 13 4.09 -0.8 15 17 1012.9 0 9.6 16.1 19.1 49.2 35.7 120.2
03 13:40 30.7 14 4.41 0.2 7 9 1013.1 0 10.2 16.5 19.9 51.6 38.6 130.4
03 13:30 29.9 13 3.92 -1.5 9 15 1012.5 0 9.2 16.0 18.8 48.4 34.5 115.9
03 13:20 29.3 14 4.09 -0.9 7 9 1013.5 0 9.6 16.3 19.4 50.1 36.3 122.2
03 13:10 29.5 13 3.84 -1.8 13 17 1013.6 0 9.1 16.0 18.7 48.1 34.0 114.0
03 13:00 29.4 14 4.11 -0.9 11 19 1013 0 9.6 16.3 19.4 50.1 36.5 122.7
03 12:50 28.8 13 3.69 -2.3 9 13 1014 0 8.8 16.0 18.4 47.5 32.9 110.2
03 12:40 28.9 14 4 -1.2 11 13 1014.1 0 9.4 16.3 19.2 49.7 35.7 120.0

Last Refresh: 04-Aug-2020 05:39:02

Most of the information presented on this site is sourced from the Bureau of Meteorology.  Copyright in all material sourced from the Bureau of Meteorology resides with the Commonwealth of Australia.